Time;durP1;ratioP1;P1;durP2;ratioP2;P2;SDS_P1;SDS_P2;PMS_P1;PMS_P2;Temp;Humidity;BMP_temperature;BMP_pressure;BME280_temperature;BME280_humidity;BME280_pressure;Samples;Min_cycle;Max_cycle;Signal;HPM_P1;HPM_P2
2023/12/10 00:02:24;;;;;;;;;;;12.20;99.90;;;;;;5076786;28;19962;-80
2023/12/10 00:04:50;;;;;;;;;;;12.20;99.90;;;;;;5075061;28;19909;-80
2023/12/10 00:07:15;;;;;;;;;;;12.30;99.90;;;;;;5077910;28;19920;-80
2023/12/10 00:09:41;;;;;;;;;;;12.20;99.90;;;;;;5076192;28;19908;-80
2023/12/10 00:12:07;;;;;;;;;;;12.20;99.90;;;;;;5084941;28;20409;-80
2023/12/10 00:14:32;;;;;;;;;;;12.20;99.90;;;;;;5096514;28;19923;-80
2023/12/10 00:16:58;;;;;;;;;;;12.20;99.90;;;;;;5096719;28;19916;-80
2023/12/10 00:19:24;;;;;;;;;;;12.20;99.90;;;;;;5095262;28;20009;-79
2023/12/10 00:21:49;;;;;;;;;;;12.20;99.90;;;;;;5096381;28;20330;-79
2023/12/10 00:24:15;;;;;;;;;;;12.10;99.90;;;;;;5094861;28;19908;-79
2023/12/10 00:26:40;;;;;;;;;;;12.10;99.90;;;;;;5093132;28;19945;-80
2023/12/10 00:29:06;;;;;;;;;;;12.00;99.90;;;;;;5084352;28;20375;-80
2023/12/10 00:31:31;;;;;;;;;;;12.00;99.90;;;;;;5075798;28;20061;-79
2023/12/10 00:33:57;;;;;;;;;;;11.90;99.90;;;;;;5075503;28;19909;-80
2023/12/10 00:36:22;;;;;;;;;;;11.90;99.90;;;;;;5075779;28;19912;-80
2023/12/10 00:38:48;;;;;;;;;;;11.90;99.90;;;;;;5075642;28;19908;-80
2023/12/10 00:41:14;;;;;;;;;;;11.80;99.90;;;;;;5076093;28;19909;-80
2023/12/10 00:43:40;;;;;;;;;;;11.80;99.90;;;;;;5075718;28;19908;-79
2023/12/10 00:46:05;;;;;;;;;;;11.80;99.90;;;;;;5075987;28;19913;-79
2023/12/10 00:48:31;;;;;;;;;;;11.80;99.90;;;;;;5075564;28;20397;-79
2023/12/10 00:50:56;;;;;;;;;;;11.70;99.90;;;;;;5075654;28;19913;-80
2023/12/10 00:53:22;;;;;;;;;;;11.70;99.90;;;;;;5075650;28;19915;-79
2023/12/10 00:55:48;;;;;;;;;;;11.70;99.90;;;;;;5075477;28;19920;-79
2023/12/10 00:58:14;;;;;;;;;;;11.60;99.90;;;;;;5075696;28;19908;-79
2023/12/10 01:00:40;;;;;;;;;;;11.50;99.90;;;;;;5075232;28;20350;-79
2023/12/10 01:03:06;;;;;;;;;;;11.40;99.90;;;;;;5074754;28;20046;-79
2023/12/10 01:05:32;;;;;;;;;;;11.40;99.90;;;;;;5077514;28;19961;-79
2023/12/10 01:07:57;;;;;;;;;;;11.40;99.90;;;;;;5076631;28;19908;-79
2023/12/10 01:10:23;;;;;;;;;;;11.30;99.90;;;;;;5094804;28;20320;-79
2023/12/10 01:12:48;;;;;;;;;;;11.40;99.90;;;;;;5079755;28;19916;-79
2023/12/10 01:15:14;;;;;;;;;;;11.30;99.90;;;;;;5075158;28;20383;-79
2023/12/10 01:17:39;;;;;;;;;;;11.30;99.90;;;;;;5075545;28;20367;-79
2023/12/10 01:20:05;;;;;;;;;;;11.30;99.90;;;;;;5080490;28;19908;-79
2023/12/10 01:22:31;;;;;;;;;;;11.30;99.90;;;;;;5095095;28;19915;-79
2023/12/10 01:24:57;;;;;;;;;;;11.30;99.90;;;;;;5095342;28;19973;-79
2023/12/10 01:27:23;;;;;;;;;;;11.30;99.90;;;;;;5086651;28;20408;-79
2023/12/10 01:29:48;;;;;;;;;;;11.30;99.90;;;;;;5077851;28;19919;-79
2023/12/10 01:32:14;;;;;;;;;;;11.30;99.90;;;;;;5073600;28;19916;-79
2023/12/10 01:34:42;;;;;;;;;;;11.30;99.90;;;;;;5074807;28;20014;-79
2023/12/10 01:37:07;;;;;;;;;;;11.30;99.90;;;;;;5074564;28;19961;-79
2023/12/10 01:39:33;;;;;;;;;;;11.30;99.90;;;;;;5073256;28;20007;-79
2023/12/10 01:41:58;;;;;;;;;;;11.30;99.90;;;;;;5074755;28;19915;-79
2023/12/10 01:44:24;;;;;;;;;;;11.20;99.90;;;;;;5074762;28;19935;-79
2023/12/10 01:46:50;;;;;;;;;;;11.20;99.90;;;;;;5073766;28;19943;-79
2023/12/10 01:49:18;;;;;;;;;;;11.20;99.90;;;;;;5074699;28;20402;-79
2023/12/10 01:51:44;;;;;;;;;;;11.20;99.90;;;;;;5074646;28;19909;-79
2023/12/10 01:54:15;;;;;;;;;;;11.30;99.90;;;;;;5074258;28;20398;-79
2023/12/10 01:56:40;;;;;;;;;;;11.30;99.90;;;;;;5074461;28;19960;-79
2023/12/10 01:59:06;;;;;;;;;;;11.40;99.90;;;;;;5074234;28;19916;-79
2023/12/10 02:01:32;;;;;;;;;;;11.40;99.90;;;;;;5073025;28;19912;-79
2023/12/10 02:03:57;;;;;;;;;;;11.40;99.90;;;;;;5074069;28;20294;-79
2023/12/10 02:06:25;;;;;;;;;;;11.30;99.90;;;;;;5081099;28;19920;-79
2023/12/10 02:08:50;;;;;;;;;;;11.30;99.90;;;;;;5092880;28;19908;-79
2023/12/10 02:11:16;;;;;;;;;;;11.30;99.90;;;;;;5094172;28;19920;-79
2023/12/10 02:13:42;;;;;;;;;;;11.40;99.90;;;;;;5077668;28;19912;-79
2023/12/10 02:16:07;;;;;;;;;;;11.40;99.90;;;;;;5072532;28;19913;-80
2023/12/10 02:18:33;;;;;;;;;;;11.40;99.90;;;;;;5073898;28;19912;-79
2023/12/10 02:20:58;;;;;;;;;;;11.40;99.90;;;;;;5072374;28;20037;-79
2023/12/10 02:23:32;;;;;;;;;;;11.30;99.90;;;;;;5074078;28;19922;-79
2023/12/10 02:25:58;;;;;;;;;;;11.30;99.90;;;;;;5076296;28;19943;-79
2023/12/10 02:28:23;;;;;;;;;;;11.30;99.90;;;;;;5089228;28;19959;-79
2023/12/10 02:30:49;;;;;;;;;;;11.30;99.90;;;;;;5084459;28;19912;-80
2023/12/10 02:33:15;;;;;;;;;;;11.30;99.90;;;;;;5073951;28;20375;-79
2023/12/10 02:35:40;;;;;;;;;;;11.20;99.90;;;;;;5073836;28;20393;-78
2023/12/10 02:38:06;;;;;;;;;;;11.20;99.90;;;;;;5073681;28;19908;-79
2023/12/10 02:40:31;;;;;;;;;;;11.20;99.90;;;;;;5073511;28;20348;-79
2023/12/10 02:42:57;;;;;;;;;;;11.20;99.90;;;;;;5073449;28;19908;-80
2023/12/10 02:45:22;;;;;;;;;;;11.10;99.90;;;;;;5073760;28;19909;-80
2023/12/10 02:47:48;;;;;;;;;;;11.10;99.90;;;;;;5087745;28;20259;-79
2023/12/10 02:50:13;;;;;;;;;;;11.10;99.90;;;;;;5093632;28;20003;-79
2023/12/10 02:52:39;;;;;;;;;;;11.00;99.90;;;;;;5093234;28;19908;-79
2023/12/10 02:55:05;;;;;;;;;;;11.00;99.90;;;;;;5093448;28;20003;-80
2023/12/10 02:57:30;;;;;;;;;;;11.00;99.90;;;;;;5073912;28;20333;-80
2023/12/10 02:59:56;;;;;;;;;;;10.90;99.90;;;;;;5073559;28;19909;-79
2023/12/10 03:02:21;;;;;;;;;;;10.90;99.90;;;;;;5073238;28;19908;-78
2023/12/10 03:04:47;;;;;;;;;;;10.80;99.90;;;;;;5072731;28;20379;-79
2023/12/10 03:07:13;;;;;;;;;;;10.80;99.90;;;;;;5084671;28;19915;-79
2023/12/10 03:09:38;;;;;;;;;;;10.60;99.90;;;;;;5091940;28;19912;-80
2023/12/10 03:12:04;;;;;;;;;;;10.60;99.90;;;;;;5090189;28;19925;-80
2023/12/10 03:14:30;;;;;;;;;;;10.50;99.90;;;;;;5072231;28;19920;-79
2023/12/10 03:16:55;;;;;;;;;;;10.50;99.90;;;;;;5073284;28;19918;-78
2023/12/10 03:19:21;;;;;;;;;;;10.40;99.90;;;;;;5073472;28;19995;-78
2023/12/10 03:21:46;;;;;;;;;;;10.40;99.90;;;;;;5086113;28;19908;-79
2023/12/10 03:24:12;;;;;;;;;;;10.40;99.90;;;;;;5093350;28;19908;-80
2023/12/10 03:26:38;;;;;;;;;;;10.40;99.90;;;;;;5088007;28;19919;-78
2023/12/10 03:29:04;;;;;;;;;;;10.40;99.90;;;;;;5084278;28;19919;-78
2023/12/10 03:31:29;;;;;;;;;;;10.40;99.90;;;;;;5078220;28;19909;-78
2023/12/10 03:33:55;;;;;;;;;;;10.40;99.90;;;;;;5071732;28;19909;-81
2023/12/10 03:36:21;;;;;;;;;;;10.40;99.90;;;;;;5072852;28;20379;-80
2023/12/10 03:38:47;;;;;;;;;;;10.40;99.90;;;;;;5072914;28;19908;-79
2023/12/10 03:41:12;;;;;;;;;;;10.30;99.90;;;;;;5072985;28;19991;-78
2023/12/10 03:43:38;;;;;;;;;;;10.30;99.90;;;;;;5072839;28;20054;-78
2023/12/10 03:46:03;;;;;;;;;;;10.40;99.90;;;;;;5073075;28;20462;-78
2023/12/10 03:48:29;;;;;;;;;;;10.30;99.90;;;;;;5072917;28;19909;-80
2023/12/10 03:50:54;;;;;;;;;;;10.40;99.90;;;;;;5073372;28;19935;-78
2023/12/10 03:53:20;;;;;;;;;;;10.30;99.90;;;;;;5071609;28;19916;-78
2023/12/10 03:55:45;;;;;;;;;;;10.30;99.90;;;;;;5072721;28;19963;-78
2023/12/10 03:58:11;;;;;;;;;;;10.30;99.90;;;;;;5072081;28;20361;-78
2023/12/10 04:00:37;;;;;;;;;;;10.30;99.90;;;;;;5072464;28;19915;-80
2023/12/10 04:03:02;;;;;;;;;;;10.30;99.90;;;;;;5071390;28;19915;-79
2023/12/10 04:05:28;;;;;;;;;;;10.30;99.90;;;;;;5072505;28;19970;-78
2023/12/10 04:07:53;;;;;;;;;;;10.30;99.90;;;;;;5078031;28;19912;-78
2023/12/10 04:10:19;;;;;;;;;;;10.30;99.90;;;;;;5075194;28;19926;-78
2023/12/10 04:12:44;;;;;;;;;;;10.30;99.90;;;;;;5081209;28;20327;-78
2023/12/10 04:15:10;;;;;;;;;;;10.30;99.90;;;;;;5075047;28;20003;-80
2023/12/10 04:17:36;;;;;;;;;;;10.30;99.90;;;;;;5076383;28;19912;-78
2023/12/10 04:20:02;;;;;;;;;;;10.30;99.90;;;;;;5076057;28;19913;-78
2023/12/10 04:22:27;;;;;;;;;;;10.30;99.90;;;;;;5076163;28;20268;-78
2023/12/10 04:24:53;;;;;;;;;;;10.30;99.90;;;;;;5076302;28;19999;-78
2023/12/10 04:27:18;;;;;;;;;;;10.40;99.90;;;;;;5089448;28;19915;-80
2023/12/10 04:29:44;;;;;;;;;;;10.30;99.90;;;;;;5078603;28;20391;-78
2023/12/10 04:32:10;;;;;;;;;;;10.30;99.90;;;;;;5055456;28;19913;-78
2023/12/10 04:34:35;;;;;;;;;;;10.30;99.90;;;;;;5056044;28;19962;-78
2023/12/10 04:37:01;;;;;;;;;;;10.20;99.90;;;;;;5055956;28;19912;-77
2023/12/10 04:39:27;;;;;;;;;;;10.20;99.90;;;;;;5071071;28;19919;-81
2023/12/10 04:41:53;;;;;;;;;;;10.10;99.90;;;;;;5056126;28;19948;-80
2023/12/10 04:44:18;;;;;;;;;;;10.00;99.90;;;;;;5055580;28;20295;-78
2023/12/10 04:46:44;;;;;;;;;;;10.00;99.90;;;;;;5055713;28;19913;-77
2023/12/10 04:49:10;;;;;;;;;;;9.90;99.90;;;;;;5070877;28;19916;-77
2023/12/10 04:51:35;;;;;;;;;;;9.90;99.90;;;;;;5056059;28;19913;-80
2023/12/10 04:54:00;;;;;;;;;;;9.90;99.90;;;;;;5055665;28;20369;-81
2023/12/10 04:56:27;;;;;;;;;;;10.00;99.90;;;;;;5055299;28;19913;-81
2023/12/10 04:58:52;;;;;;;;;;;10.00;99.90;;;;;;5055305;28;19909;-77
2023/12/10 05:01:18;;;;;;;;;;;10.10;99.90;;;;;;5055481;28;20291;-77
2023/12/10 05:03:43;;;;;;;;;;;10.10;99.90;;;;;;5057377;28;19909;-80
2023/12/10 05:06:09;;;;;;;;;;;10.20;99.90;;;;;;5082083;28;19953;-81
2023/12/10 05:08:34;;;;;;;;;;;10.20;99.90;;;;;;5075051;28;20466;-81
2023/12/10 05:11:00;;;;;;;;;;;10.20;99.90;;;;;;5075186;28;19920;-77
2023/12/10 05:13:26;;;;;;;;;;;10.30;99.90;;;;;;5075206;28;19955;-77
2023/12/10 05:15:51;;;;;;;;;;;10.20;99.90;;;;;;5086303;28;19923;-78
2023/12/10 05:18:17;;;;;;;;;;;10.20;99.90;;;;;;5095126;28;19931;-81
2023/12/10 05:20:42;;;;;;;;;;;10.20;99.90;;;;;;5095337;28;20449;-81
2023/12/10 05:23:08;;;;;;;;;;;10.20;99.90;;;;;;5093455;28;19957;-78
2023/12/10 05:25:34;;;;;;;;;;;10.30;99.90;;;;;;5087232;28;19957;-77
2023/12/10 05:27:59;;;;;;;;;;;10.30;99.90;;;;;;5077517;28;19916;-77
2023/12/10 05:30:25;;;;;;;;;;;10.30;99.90;;;;;;5094176;28;19908;-78
2023/12/10 05:32:51;;;;;;;;;;;10.30;99.90;;;;;;5078084;28;19912;-81
2023/12/10 05:35:16;;;;;;;;;;;10.30;99.90;;;;;;5094898;28;19908;-81
2023/12/10 05:37:42;;;;;;;;;;;10.40;99.90;;;;;;5094977;28;19911;-78
2023/12/10 05:40:08;;;;;;;;;;;10.40;99.90;;;;;;5094944;28;19919;-78
2023/12/10 05:42:33;;;;;;;;;;;10.40;99.90;;;;;;5094937;28;19919;-77
2023/12/10 05:44:59;;;;;;;;;;;10.30;99.90;;;;;;5094873;28;19915;-80
2023/12/10 05:47:24;;;;;;;;;;;10.20;99.90;;;;;;5093470;28;20007;-81
2023/12/10 05:49:50;;;;;;;;;;;10.10;99.90;;;;;;5094814;28;19909;-78
2023/12/10 05:52:16;;;;;;;;;;;10.10;99.90;;;;;;5094616;28;19915;-78
2023/12/10 05:54:41;;;;;;;;;;;10.10;99.90;;;;;;5093341;28;19908;-78
2023/12/10 05:57:07;;;;;;;;;;;10.20;99.90;;;;;;5078455;28;19913;-81
2023/12/10 05:59:32;;;;;;;;;;;10.20;99.90;;;;;;5074307;28;19933;-81
2023/12/10 06:01:58;;;;;;;;;;;10.20;99.90;;;;;;5074240;28;19931;-81
2023/12/10 06:04:23;;;;;;;;;;;10.20;99.90;;;;;;5073898;28;20275;-78
2023/12/10 06:06:49;;;;;;;;;;;9.80;99.90;;;;;;5079644;28;20384;-78
2023/12/10 06:09:15;;;;;;;;;;;9.60;99.90;;;;;;5073884;28;19919;-78
2023/12/10 06:11:41;;;;;;;;;;;9.40;99.90;;;;;;5076188;28;19963;-81
2023/12/10 06:14:06;;;;;;;;;;;9.40;99.90;;;;;;5073893;28;19966;-81
2023/12/10 06:16:32;;;;;;;;;;;9.30;99.90;;;;;;5073998;28;19920;-77
2023/12/10 06:18:59;;;;;;;;;;;9.20;99.90;;;;;;5073419;28;20292;-77
2023/12/10 06:21:25;;;;;;;;;;;9.20;99.90;;;;;;5073413;28;19966;-77
2023/12/10 06:23:50;;;;;;;;;;;9.10;99.90;;;;;;5073848;28;20362;-81
2023/12/10 06:26:16;;;;;;;;;;;9.10;99.90;;;;;;5075954;28;20329;-81
2023/12/10 06:28:41;;;;;;;;;;;9.10;99.90;;;;;;5094310;28;19916;-77
2023/12/10 06:31:07;;;;;;;;;;;9.10;99.90;;;;;;5084792;28;19912;-78
2023/12/10 06:33:32;;;;;;;;;;;9.10;99.90;;;;;;5093459;28;19912;-77
2023/12/10 06:35:58;;;;;;;;;;;9.10;99.90;;;;;;5073814;28;19920;-81
2023/12/10 06:38:23;;;;;;;;;;;9.00;99.90;;;;;;5090715;28;20389;-81
2023/12/10 06:40:49;;;;;;;;;;;9.00;99.90;;;;;;5093700;28;19993;-78
2023/12/10 06:43:14;;;;;;;;;;;9.00;99.90;;;;;;5093911;28;19912;-77
2023/12/10 06:45:40;;;;;;;;;;;8.90;99.90;;;;;;5093807;28;19915;-77
2023/12/10 06:48:06;;;;;;;;;;;8.80;99.90;;;;;;5089782;28;19912;-77
2023/12/10 06:50:32;;;;;;;;;;;8.70;99.90;;;;;;5092872;28;19908;-81
2023/12/10 06:52:57;;;;;;;;;;;8.70;99.90;;;;;;5080412;28;19997;-81
2023/12/10 06:55:23;;;;;;;;;;;8.80;99.90;;;;;;5080855;28;19959;-77
2023/12/10 06:57:48;;;;;;;;;;;8.80;99.90;;;;;;5072034;28;19920;-77
2023/12/10 07:00:14;;;;;;;;;;;8.80;99.90;;;;;;5073473;28;19912;-78
2023/12/10 07:02:39;;;;;;;;;;;8.80;99.90;;;;;;5073352;28;19915;-78
2023/12/10 07:05:06;;;;;;;;;;;8.80;99.90;;;;;;5072127;28;20325;-81
2023/12/10 07:07:31;;;;;;;;;;;8.80;99.90;;;;;;5076909;28;19912;-78
2023/12/10 07:09:57;;;;;;;;;;;8.80;99.90;;;;;;5085802;28;19915;-78
2023/12/10 07:12:23;;;;;;;;;;;8.70;99.90;;;;;;5084648;28;19924;-78
2023/12/10 07:14:48;;;;;;;;;;;8.70;99.90;;;;;;5073026;28;20039;-82
2023/12/10 07:17:14;;;;;;;;;;;8.70;99.90;;;;;;5073492;28;20024;-78
2023/12/10 07:19:40;;;;;;;;;;;8.80;99.90;;;;;;5071923;28;19908;-78
2023/12/10 07:22:06;;;;;;;;;;;8.80;99.90;;;;;;5081247;28;19969;-78
2023/12/10 07:24:31;;;;;;;;;;;8.70;99.90;;;;;;5073858;28;19912;-78
2023/12/10 07:26:57;;;;;;;;;;;8.80;99.90;;;;;;5078600;28;19952;-81
2023/12/10 07:29:22;;;;;;;;;;;8.80;99.90;;;;;;5085563;28;19966;-78
2023/12/10 07:31:48;;;;;;;;;;;8.90;99.90;;;;;;5075647;28;19991;-78
2023/12/10 07:34:13;;;;;;;;;;;8.90;99.90;;;;;;5073126;28;19952;-78
2023/12/10 07:36:39;;;;;;;;;;;8.80;99.90;;;;;;5073167;28;19913;-78
2023/12/10 07:39:05;;;;;;;;;;;8.90;99.90;;;;;;5072990;28;20011;-78
2023/12/10 07:41:30;;;;;;;;;;;8.90;99.90;;;;;;5073013;28;19908;-81
2023/12/10 07:43:56;;;;;;;;;;;8.90;99.90;;;;;;5073291;28;19913;-81
2023/12/10 07:46:21;;;;;;;;;;;8.90;99.90;;;;;;5076667;28;20279;-78
2023/12/10 07:48:47;;;;;;;;;;;8.90;99.90;;;;;;5075570;28;19916;-78
2023/12/10 07:51:12;;;;;;;;;;;8.90;99.90;;;;;;5078890;28;20015;-78
2023/12/10 07:53:38;;;;;;;;;;;8.90;99.90;;;;;;5077138;28;19912;-80
2023/12/10 07:56:04;;;;;;;;;;;8.90;99.90;;;;;;5079964;28;19919;-81
2023/12/10 07:58:29;;;;;;;;;;;9.00;99.90;;;;;;5096879;28;19915;-79
2023/12/10 08:00:55;;;;;;;;;;;9.00;99.90;;;;;;5097014;28;19915;-79
2023/12/10 08:03:21;;;;;;;;;;;9.10;99.90;;;;;;5080156;28;20364;-78
2023/12/10 08:05:47;;;;;;;;;;;9.10;99.90;;;;;;5077477;28;19908;-79
2023/12/10 08:08:12;;;;;;;;;;;9.10;99.90;;;;;;5096344;28;19919;-81
2023/12/10 08:10:38;;;;;;;;;;;9.20;99.90;;;;;;5096497;28;19922;-81
2023/12/10 08:13:03;;;;;;;;;;;9.20;99.90;;;;;;5080080;28;19919;-78
2023/12/10 08:15:29;;;;;;;;;;;9.20;99.90;;;;;;5076511;28;19954;-78
2023/12/10 08:17:54;;;;;;;;;;;9.30;99.90;;;;;;5085498;28;19963;-78
2023/12/10 08:20:20;;;;;;;;;;;9.30;99.90;;;;;;5076118;28;20387;-80
2023/12/10 08:22:47;;;;;;;;;;;9.40;99.90;;;;;;5084310;28;19923;-79
2023/12/10 08:25:13;;;;;;;;;;;9.50;99.90;;;;;;5078685;28;19963;-78
2023/12/10 08:27:39;;;;;;;;;;;9.50;99.90;;;;;;5086808;28;20335;-78
2023/12/10 08:30:04;;;;;;;;;;;9.50;99.90;;;;;;5077973;28;19916;-78
2023/12/10 08:32:30;;;;;;;;;;;9.60;99.90;;;;;;5074645;28;19908;-79
2023/12/10 08:34:55;;;;;;;;;;;9.60;99.90;;;;;;5076013;28;19909;-79
2023/12/10 08:37:21;;;;;;;;;;;9.70;99.90;;;;;;5086322;28;20328;-81
2023/12/10 08:39:47;;;;;;;;;;;9.90;99.90;;;;;;5096294;28;19908;-79
2023/12/10 08:42:13;;;;;;;;;;;10.00;99.90;;;;;;5095932;28;19953;-79
2023/12/10 08:44:38;;;;;;;;;;;10.20;99.90;;;;;;5096236;28;19991;-79
2023/12/10 08:47:04;;;;;;;;;;;10.30;99.90;;;;;;5095909;28;19934;-79
2023/12/10 08:49:29;;;;;;;;;;;10.50;99.90;;;;;;5085531;28;19916;-80
2023/12/10 08:51:55;;;;;;;;;;;10.70;99.90;;;;;;5075830;28;19919;-79
2023/12/10 08:54:20;;;;;;;;;;;10.90;99.90;;;;;;5075501;28;19915;-79
2023/12/10 08:56:46;;;;;;;;;;;11.00;99.90;;;;;;5075023;28;20375;-80
2023/12/10 08:59:11;;;;;;;;;;;11.10;99.90;;;;;;5075470;28;20268;-79
2023/12/10 09:01:37;;;;;;;;;;;11.10;99.90;;;;;;5075697;28;19962;-81
2023/12/10 09:04:05;;;;;;;;;;;11.20;99.90;;;;;;5073918;28;19954;-80
2023/12/10 09:06:31;;;;;;;;;;;11.30;99.90;;;;;;5081071;28;19939;-80
2023/12/10 09:08:57;;;;;;;;;;;11.40;99.90;;;;;;5095591;28;19908;-79
2023/12/10 09:11:22;;;;;;;;;;;11.40;99.90;;;;;;5092686;28;19969;-79
2023/12/10 09:13:48;;;;;;;;;;;11.50;99.90;;;;;;5075176;28;19955;-80
2023/12/10 09:16:14;;;;;;;;;;;11.60;99.90;;;;;;5075749;28;19970;-80
2023/12/10 09:18:40;;;;;;;;;;;11.70;99.90;;;;;;5086388;28;19920;-80
2023/12/10 09:21:07;;;;;;;;;;;11.80;99.90;;;;;;5083270;28;19912;-80
2023/12/10 09:23:34;;;;;;;;;;;11.90;99.90;;;;;;5080381;28;19958;-82
2023/12/10 09:26:00;;;;;;;;;;;12.00;99.90;;;;;;5093264;28;19912;-81
2023/12/10 09:28:25;;;;;;;;;;;12.10;99.90;;;;;;5083748;28;19912;-80
2023/12/10 09:30:51;;;;;;;;;;;12.10;99.90;;;;;;5095138;28;19908;-80
2023/12/10 09:33:17;;;;;;;;;;;12.00;99.90;;;;;;5095234;28;19908;-79
2023/12/10 09:35:42;;;;;;;;;;;11.90;99.90;;;;;;5095085;28;19912;-81
2023/12/10 09:38:08;;;;;;;;;;;11.80;99.90;;;;;;5079339;28;20020;-81
2023/12/10 09:40:34;;;;;;;;;;;11.70;99.90;;;;;;5074669;28;19913;-80
2023/12/10 09:42:59;;;;;;;;;;;11.60;99.90;;;;;;5076165;28;20033;-81
2023/12/10 09:45:25;;;;;;;;;;;11.50;99.90;;;;;;5083545;28;20294;-78
2023/12/10 09:47:51;;;;;;;;;;;11.50;99.90;;;;;;5074510;28;19915;-77
2023/12/10 09:50:18;;;;;;;;;;;11.40;99.90;;;;;;5076220;28;20003;-80
2023/12/10 09:52:44;;;;;;;;;;;11.40;99.90;;;;;;5083707;28;20371;-80
2023/12/10 09:55:09;;;;;;;;;;;11.40;99.90;;;;;;5080596;28;19912;-78
2023/12/10 09:57:35;;;;;;;;;;;11.40;99.90;;;;;;5078067;28;20010;-82
2023/12/10 10:00:00;;;;;;;;;;;11.40;99.90;;;;;;5092875;28;19912;-80
2023/12/10 10:02:36;;;;;;;;;;;11.40;99.90;;;;;;5094738;28;19912;-81
2023/12/10 10:05:02;;;;;;;;;;;11.30;99.90;;;;;;5081929;28;19909;-79
2023/12/10 10:07:28;;;;;;;;;;;11.30;99.90;;;;;;5073421;28;19908;-79
2023/12/10 10:09:54;;;;;;;;;;;11.30;99.90;;;;;;5074370;28;19920;-81
2023/12/10 10:12:20;;;;;;;;;;;11.30;99.90;;;;;;5073835;28;19928;-79
2023/12/10 10:14:55;;;;;;;;;;;11.30;99.90;;;;;;5074330;28;19951;-83
2023/12/10 10:17:27;;;;;;;;;;;11.20;99.90;;;;;;5074001;28;19916;-79
2023/12/10 10:19:54;;;;;;;;;;;11.30;99.90;;;;;;5072577;28;19912;-78
2023/12/10 10:22:20;;;;;;;;;;;11.30;99.90;;;;;;5073458;28;19962;-83
2023/12/10 10:24:46;;;;;;;;;;;11.40;99.90;;;;;;5074224;28;20383;-83
2023/12/10 10:27:11;;;;;;;;;;;11.50;99.90;;;;;;5082133;28;20006;-81
2023/12/10 10:29:37;;;;;;;;;;;11.60;99.90;;;;;;5094313;28;20002;-84
2023/12/10 10:32:03;;;;;;;;;;;11.70;99.90;;;;;;5093873;28;19959;-79
2023/12/10 10:34:29;;;;;;;;;;;11.80;99.90;;;;;;5094173;28;19915;-80
2023/12/10 10:36:54;;;;;;;;;;;11.80;99.90;;;;;;5094485;28;19928;-82
2023/12/10 10:39:20;;;;;;;;;;;11.90;99.90;;;;;;5093984;28;20003;-82
2023/12/10 10:41:45;;;;;;;;;;;11.80;99.90;;;;;;5094233;28;19948;-81
2023/12/10 10:44:11;;;;;;;;;;;11.80;99.90;;;;;;5093897;28;19946;-81
2023/12/10 10:46:37;;;;;;;;;;;11.80;99.90;;;;;;5093740;28;19908;-80
2023/12/10 10:49:03;;;;;;;;;;;11.90;99.90;;;;;;5093649;28;20061;-80
2023/12/10 10:51:31;;;;;;;;;;;11.90;99.90;;;;;;5093680;28;19908;-80
2023/12/10 10:53:57;;;;;;;;;;;11.90;99.90;;;;;;5093739;28;19908;-79
2023/12/10 10:56:23;;;;;;;;;;;11.90;99.90;;;;;;5083686;28;19913;-79
2023/12/10 10:58:49;;;;;;;;;;;11.90;99.90;;;;;;5072068;28;19908;-80
2023/12/10 11:01:33;;;;;;;;;;;12.00;99.90;;;;;;5073398;28;19920;-79
2023/12/10 11:04:15;;;;;;;;;;;12.00;99.90;;;;;;5073603;28;19909;-79
2023/12/10 11:06:41;;;;;;;;;;;12.00;99.90;;;;;;5082227;28;19931;-79
2023/12/10 11:09:06;;;;;;;;;;;12.10;99.90;;;;;;5093336;28;20378;-79
2023/12/10 11:11:41;;;;;;;;;;;12.10;99.90;;;;;;5093418;28;19920;-79
2023/12/10 11:14:25;;;;;;;;;;;12.10;99.90;;;;;;5073071;28;19916;-78
2023/12/10 11:16:57;;;;;;;;;;;12.10;99.90;;;;;;5073248;28;20390;-79
2023/12/10 11:19:22;;;;;;;;;;;12.20;99.90;;;;;;5077978;28;19999;-78
2023/12/10 11:21:49;;;;;;;;;;;12.20;99.90;;;;;;5079643;28;20009;-79
2023/12/10 11:24:15;;;;;;;;;;;12.30;99.90;;;;;;5079759;28;20006;-79
2023/12/10 11:26:40;;;;;;;;;;;12.30;99.90;;;;;;5083349;28;19986;-78
2023/12/10 11:29:06;;;;;;;;;;;12.20;99.90;;;;;;5087722;28;19916;-79
2023/12/10 11:31:32;;;;;;;;;;;12.20;99.90;;;;;;5079543;28;19931;-79
2023/12/10 11:33:58;;;;;;;;;;;12.20;99.90;;;;;;5079725;28;19931;-80
2023/12/10 11:36:24;;;;;;;;;;;12.30;99.90;;;;;;5079527;28;19913;-83
2023/12/10 11:38:49;;;;;;;;;;;12.40;99.90;;;;;;5078372;28;19915;-84
2023/12/10 11:41:15;;;;;;;;;;;12.50;99.90;;;;;;5079752;28;19961;-84
2023/12/10 11:43:44;;;;;;;;;;;12.50;99.90;;;;;;5079685;28;19958;-83
2023/12/10 11:46:09;;;;;;;;;;;12.50;99.90;;;;;;5079741;28;19959;-84
2023/12/10 11:48:35;;;;;;;;;;;12.40;99.90;;;;;;5079699;28;20411;-77
2023/12/10 11:51:00;;;;;;;;;;;12.30;99.90;;;;;;5079688;28;19909;-78
2023/12/10 11:53:26;;;;;;;;;;;12.30;99.90;;;;;;5079697;28;20329;-78
2023/12/10 11:55:52;;;;;;;;;;;12.40;99.90;;;;;;5079717;28;19955;-80
2023/12/10 11:58:25;;;;;;;;;;;12.40;99.90;;;;;;5079290;28;19909;-81
2023/12/10 12:00:58;;;;;;;;;;;12.50;99.90;;;;;;5079967;28;19959;-78
2023/12/10 12:03:23;;;;;;;;;;;12.50;99.90;;;;;;5079678;28;19908;-78
2023/12/10 12:05:52;;;;;;;;;;;12.60;99.90;;;;;;5083109;28;20293;-82
2023/12/10 12:08:19;;;;;;;;;;;12.80;99.90;;;;;;5080683;28;20102;-82
2023/12/10 12:10:44;;;;;;;;;;;12.90;99.90;;;;;;5079281;28;20401;-80
2023/12/10 12:13:10;;;;;;;;;;;12.90;99.90;;;;;;5080997;28;20011;-83
2023/12/10 12:15:35;;;;;;;;;;;12.90;99.90;;;;;;5079400;28;19912;-78
2023/12/10 12:18:02;;;;;;;;;;;12.90;99.90;;;;;;5079521;28;19912;-84
2023/12/10 12:20:29;;;;;;;;;;;13.00;99.90;;;;;;5081569;28;19916;-84
2023/12/10 12:22:55;;;;;;;;;;;13.00;99.90;;;;;;5080621;28;20294;-81
2023/12/10 12:25:21;;;;;;;;;;;13.00;99.90;;;;;;5079386;28;19938;-80
2023/12/10 12:27:47;;;;;;;;;;;13.00;99.90;;;;;;5089080;28;19918;-80
2023/12/10 12:30:14;;;;;;;;;;;13.00;99.90;;;;;;5130406;27;19908;-79
2023/12/10 12:32:40;;;;;;;;;;;13.00;99.90;;;;;;5096295;28;20477;-81
2023/12/10 12:35:05;;;;;;;;;;;13.10;99.90;;;;;;5096440;28;19995;-83
2023/12/10 12:37:31;;;;;;;;;;;13.10;99.90;;;;;;5096186;28;19934;-83
2023/12/10 12:39:57;;;;;;;;;;;13.20;99.90;;;;;;5096278;28;19995;-83
2023/12/10 12:42:23;;;;;;;;;;;13.10;99.90;;;;;;5096368;28;20389;-79
2023/12/10 12:44:48;;;;;;;;;;;13.20;99.90;;;;;;5094659;28;20383;-81
2023/12/10 12:47:14;;;;;;;;;;;13.20;99.90;;;;;;5095948;28;19915;-80
2023/12/10 12:49:40;;;;;;;;;;;13.20;99.90;;;;;;5095770;28;19908;-80
2023/12/10 12:52:07;;;;;;;;;;;13.30;99.90;;;;;;5095983;28;19939;-77
2023/12/10 12:54:32;;;;;;;;;;;13.30;99.90;;;;;;5095846;28;20315;-77
2023/12/10 12:56:58;;;;;;;;;;;13.40;99.90;;;;;;5080849;28;19912;-78
2023/12/10 12:59:24;;;;;;;;;;;13.40;99.90;;;;;;5075336;28;19909;-77
2023/12/10 13:01:49;;;;;;;;;;;13.40;99.90;;;;;;5075462;28;19909;-77
2023/12/10 13:04:15;;;;;;;;;;;13.40;99.90;;;;;;5074422;28;19919;-79
2023/12/10 13:06:40;;;;;;;;;;;13.40;99.90;;;;;;5080859;28;19979;-77
2023/12/10 13:09:06;;;;;;;;;;;13.40;99.90;;;;;;5075261;28;20286;-77
2023/12/10 13:11:32;;;;;;;;;;;13.40;99.90;;;;;;5085575;28;19920;-77
2023/12/10 13:13:57;;;;;;;;;;;13.50;99.90;;;;;;5082000;28;19920;-77
2023/12/10 13:16:23;;;;;;;;;;;13.60;99.90;;;;;;5095332;28;19912;-76
2023/12/10 13:18:48;;;;;;;;;;;13.70;99.90;;;;;;5095574;28;19915;-76
2023/12/10 13:21:14;;;;;;;;;;;13.80;99.90;;;;;;5094960;28;20358;-77
2023/12/10 13:23:39;;;;;;;;;;;13.90;99.90;;;;;;5080172;28;20367;-77
2023/12/10 13:26:05;;;;;;;;;;;14.00;99.90;;;;;;5076198;28;19969;-79
2023/12/10 13:28:30;;;;;;;;;;;14.00;99.90;;;;;;5085753;28;19950;-77
2023/12/10 13:30:56;;;;;;;;;;;14.10;99.90;;;;;;5073767;28;19957;-78
2023/12/10 13:33:22;;;;;;;;;;;14.10;99.90;;;;;;5074805;28;19916;-76
2023/12/10 13:35:48;;;;;;;;;;;14.20;99.90;;;;;;5074963;28;19909;-79
2023/12/10 13:38:13;;;;;;;;;;;14.20;99.90;;;;;;5074686;28;19915;-80
2023/12/10 13:40:39;;;;;;;;;;;14.30;99.90;;;;;;5073307;28;19909;-80
2023/12/10 13:43:04;;;;;;;;;;;14.30;99.90;;;;;;5073516;28;20015;-79
2023/12/10 13:45:30;;;;;;;;;;;14.40;99.90;;;;;;5083951;28;20442;-77
2023/12/10 13:47:55;;;;;;;;;;;14.50;99.90;;;;;;5076198;28;20011;-77
2023/12/10 13:50:21;;;;;;;;;;;14.50;99.90;;;;;;5074570;28;20370;-77
2023/12/10 13:52:46;;;;;;;;;;;14.50;99.90;;;;;;5074498;28;19916;-78
2023/12/10 13:55:12;;;;;;;;;;;14.50;99.90;;;;;;5074478;28;20378;-78
2023/12/10 13:57:38;;;;;;;;;;;14.50;99.90;;;;;;5054590;28;19913;-77
2023/12/10 14:00:06;;;;;;;;;;;14.50;99.90;;;;;;5054419;28;20386;-76
2023/12/10 14:02:31;;;;;;;;;;;14.40;99.90;;;;;;5054095;28;19909;-76
2023/12/10 14:05:00;;;;;;;;;;;14.50;99.90;;;;;;5065565;28;19909;-75
2023/12/10 14:07:26;;;;;;;;;;;14.50;99.90;;;;;;5089187;28;19912;-75
2023/12/10 14:09:51;;;;;;;;;;;14.50;99.90;;;;;;5074467;28;19919;-76
2023/12/10 14:12:17;;;;;;;;;;;14.50;99.90;;;;;;5075988;28;20382;-76